Time;durP1;ratioP1;P1;durP2;ratioP2;P2;SDS_P1;SDS_P2;PMS_P1;PMS_P2;Temp;Humidity;BMP_temperature;BMP_pressure;BME280_temperature;BME280_humidity;BME280_pressure;Samples;Min_cycle;Max_cycle;Signal;HPM_P1;HPM_P2
2024/02/22 00:01:24;;;;;;;;;18.25;15.00;;;;;9.63;70.22;101711.91;146601;625;47016;-70
2024/02/22 00:04:33;;;;;;;;;19.25;18.25;;;;;9.63;69.21;101716.19;146606;746;47010;-69
2024/02/22 00:07:31;;;;;;;;;20.00;16.00;;;;;9.58;68.99;101708.06;146604;608;46016;-68
2024/02/22 00:10:30;;;;;;;;;21.25;20.00;;;;;9.57;68.99;101710.56;146608;571;46022;-70
2024/02/22 00:13:29;;;;;;;;;24.25;22.50;;;;;9.51;68.77;101708.44;146602;605;47016;-74
2024/02/22 00:16:26;;;;;;;;;28.00;25.00;;;;;9.41;69.14;101703.41;146606;563;46010;-73
2024/02/22 00:19:27;;;;;;;;;26.25;25.25;;;;;9.27;69.53;101706.66;146605;601;46016;-70
2024/02/22 00:22:25;;;;;;;;;23.00;22.50;;;;;9.17;70.23;101700.84;146605;590;47010;-70
2024/02/22 00:25:26;;;;;;;;;24.75;23.00;;;;;9.07;70.22;101700.97;146606;611;46020;-70
2024/02/22 00:28:24;;;;;;;;;32.50;27.00;;;;;9.00;70.44;101701.28;146597;590;47010;-70
2024/02/22 00:31:34;;;;;;;;;35.75;27.75;;;;;8.89;70.52;101697.03;146597;655;47042;-68
2024/02/22 00:34:41;;;;;;;;;33.25;28.00;;;;;8.88;70.92;101705.56;146601;606;47024;-69
2024/02/22 00:37:37;;;;;;;;;34.25;29.25;;;;;8.82;70.94;101710.31;146604;647;47012;-70
2024/02/22 00:40:44;;;;;;;;;23.00;18.50;;;;;8.70;71.03;101700.84;146606;590;46020;-71
2024/02/22 00:43:39;;;;;;;;;22.50;19.00;;;;;8.59;71.75;101691.37;146603;582;46017;-70
2024/02/22 00:46:42;;;;;;;;;23.00;17.25;;;;;8.44;71.87;101673.06;146604;569;47010;-70
2024/02/22 00:49:50;;;;;;;;;16.25;16.00;;;;;8.43;71.97;101686.75;146606;592;45017;-71
2024/02/22 00:52:44;;;;;;;;;16.75;16.25;;;;;8.31;72.69;101683.19;146605;588;48012;-71
2024/02/22 00:55:42;;;;;;;;;17.50;16.50;;;;;8.24;72.27;101678.38;146606;565;46016;-72
2024/02/22 00:58:43;;;;;;;;;18.50;17.50;;;;;8.20;73.03;101678.94;146602;583;46010;-70
2024/02/22 01:01:48;;;;;;;;;19.00;16.50;;;;;8.16;72.38;101674.28;146607;594;46041;-67
2024/02/22 01:04:48;;;;;;;;;16.25;13.75;;;;;8.13;72.91;101664.66;146608;620;46010;-72
2024/02/22 01:07:49;;;;;;;;;14.75;14.50;;;;;8.16;72.85;101674.28;146604;570;46012;-71
2024/02/22 01:10:56;;;;;;;;;17.50;16.00;;;;;8.15;72.95;101663.06;146607;593;46020;-71
2024/02/22 01:13:54;;;;;;;;;19.75;17.75;;;;;8.14;72.56;101656.09;146602;586;46012;-72
2024/02/22 01:16:48;;;;;;;;;15.50;15.50;;;;;8.16;73.27;101662.31;146605;565;47012;-70
2024/02/22 01:19:42;;;;;;;;;16.00;14.50;;;;;8.19;73.14;101651.28;146598;564;47012;-70
2024/02/22 01:22:35;;;;;;;;;17.25;15.25;;;;;8.19;72.47;101651.28;146607;569;46021;-70
2024/02/22 01:25:32;;;;;;;;;19.50;14.75;;;;;8.15;72.72;101644.97;146603;570;46016;-70
2024/02/22 01:28:45;;;;;;;;;15.50;14.00;;;;;8.14;72.59;101638.03;146601;641;47011;-70
2024/02/22 01:31:40;;;;;;;;;18.00;14.00;;;;;8.13;72.15;101638.81;146604;718;47016;-71
2024/02/22 01:34:47;;;;;;;;;17.75;14.00;;;;;8.12;71.62;101634.41;146603;578;47010;-70
2024/02/22 01:38:00;;;;;;;;;13.75;12.25;;;;;8.05;71.75;101637.31;146606;587;46016;-70
2024/02/22 01:40:56;;;;;;;;;14.00;14.00;;;;;8.01;72.15;101628.44;146604;565;47020;-70
2024/02/22 01:43:49;;;;;;;;;13.25;11.75;;;;;8.00;71.92;101633.47;146604;590;46016;-71
2024/02/22 01:47:00;;;;;;;;;;;;;;;;;;;;;
2024/02/22 01:50:07;;;;;;;;;12.75;12.75;;;;;7.86;71.31;101624.69;146602;573;47915;-72
2024/02/22 01:53:02;;;;;;;;;15.50;15.00;;;;;7.76;71.94;101642.84;146608;651;47020;-73
2024/02/22 01:56:02;;;;;;;;;18.75;15.75;;;;;7.66;72.46;101624.84;146604;570;46016;-71
2024/02/22 01:58:57;;;;;;;;;19.00;15.75;;;;;7.58;72.54;101621.69;146603;676;46010;-72
2024/02/22 02:01:55;;;;;;;;;19.25;18.25;;;;;7.57;73.20;101619.84;146600;563;46016;-70
2024/02/22 02:04:55;;;;;;;;;20.75;18.75;;;;;7.57;73.11;101625.94;146606;615;47012;-71
2024/02/22 02:07:52;;;;;;;;;24.00;21.50;;;;;7.56;73.33;101615.50;146603;618;46012;-69
2024/02/22 02:10:48;;;;;;;;;19.50;18.50;;;;;7.50;73.18;101618.50;146602;637;47020;-67
2024/02/22 02:13:55;;;;;;;;;22.25;19.75;;;;;7.50;73.50;101625.34;146602;604;46017;-68
2024/02/22 02:17:05;;;;;;;;;22.25;20.50;;;;;7.49;73.12;101621.84;146605;644;48010;-71
2024/02/22 02:20:03;;;;;;;;;19.50;19.25;;;;;7.45;72.58;101624.09;146599;609;47013;-68
2024/02/22 02:23:48;;;;;;;;;23.50;19.25;;;;;4.21;71.86;101074.88;146604;597;46020;-67
2024/02/22 02:26:48;;;;;;;;;23.25;20.50;;;;;7.21;73.06;101626.53;146602;591;47013;-68
2024/02/22 02:29:50;;;;;;;;;24.25;21.00;;;;;7.14;73.66;101624.25;146601;637;46012;-69
2024/02/22 02:32:48;;;;;;;;;33.00;25.00;;;;;7.11;73.70;101621.44;146598;649;47915;-69
2024/02/22 02:35:42;;;;;;;;;31.75;27.00;;;;;7.07;73.89;101615.16;146606;649;47028;-68
2024/02/22 02:38:57;;;;;;;;;30.50;27.25;;;;;7.15;74.43;101629.53;146603;634;46915;-69
2024/02/22 02:42:11;;;;;;;;;;;;;;;;;;;;;
2024/02/22 02:45:06;;;;;;;;;35.00;28.00;;;;;7.09;74.41;101617.84;146604;574;46016;-68
2024/02/22 02:48:02;;;;;;;;;38.50;31.00;;;;;7.04;74.60;101621.72;146606;653;47020;-68
2024/02/22 02:51:15;;;;;;;;;31.50;27.50;;;;;6.98;74.95;101618.62;146601;664;46012;-69
2024/02/22 02:54:13;;;;;;;;;28.50;24.25;;;;;6.93;75.39;101626.03;146606;618;46010;-68
2024/02/22 02:57:16;;;;;;;;;28.25;24.25;;;;;6.88;75.59;101622.16;146602;628;47016;-70
2024/02/22 03:00:37;;;;;;;;;23.00;19.75;;;;;6.85;75.47;101622.84;146600;668;47012;-69
2024/02/22 03:03:51;;;;;;;;;23.50;20.50;;;;;6.85;76.04;101619.34;146603;602;47012;-69
2024/02/22 03:06:46;;;;;;;;;22.50;21.00;;;;;6.87;76.49;101615.22;146608;580;46020;-69
2024/02/22 03:09:42;;;;;;;;;20.50;18.50;;;;;6.88;76.06;101617.00;146604;628;46017;-69
2024/02/22 03:12:42;;;;;;;;;20.25;16.75;;;;;6.88;75.63;101615.31;146608;564;46010;-70
2024/02/22 03:15:40;;;;;;;;;20.50;18.50;;;;;6.95;75.59;101614.16;146601;677;47012;-68
2024/02/22 03:18:42;;;;;;;;;22.25;18.50;;;;;7.04;75.59;101613.97;146607;597;47021;-69
2024/02/22 03:21:54;;;;;;;;;;;;;;;;;;;;;
2024/02/22 03:24:58;;;;;;;;;43.50;34.25;;;;;7.14;74.76;101613.94;146608;617;46010;-68
2024/02/22 03:28:06;;;;;;;;;34.25;29.50;;;;;7.14;74.24;101616.53;146602;584;46016;-66
2024/02/22 03:31:03;;;;;;;;;34.25;30.00;;;;;7.04;74.06;101611.41;146601;726;47010;-68
2024/02/22 03:34:02;;;;;;;;;31.25;27.25;;;;;6.97;74.44;101615.16;146605;677;46013;-68
2024/02/22 03:37:09;;;;;;;;;26.50;21.25;;;;;6.92;74.79;101629.41;146605;569;46010;-70
2024/02/22 03:40:03;;;;;;;;;25.75;22.75;;;;;6.87;74.80;101618.69;146602;569;46033;-70
2024/02/22 03:43:06;;;;;;;;;21.50;20.00;;;;;6.84;75.58;101617.56;146607;595;46021;-72
2024/02/22 03:46:11;;;;;;;;;25.75;23.00;;;;;6.77;75.02;101625.56;146602;761;47016;-72
2024/02/22 03:49:21;;;;;;;;;20.50;16.50;;;;;5.01;74.57;101324.63;146604;585;47010;-72
2024/02/22 03:52:16;;;;;;;;;20.50;16.25;;;;;6.70;75.73;101619.94;146603;572;46012;-74
2024/02/22 03:55:12;;;;;;;;;22.25;19.25;;;;;6.70;75.05;101626.75;146598;584;47021;-75
2024/02/22 03:58:13;;;;;;;;;20.50;19.00;;;;;6.68;75.48;101621.47;146602;732;46012;-74
2024/02/22 04:01:11;;;;;;;;;21.75;20.00;;;;;6.67;75.15;101622.25;146601;571;47010;-80
2024/02/22 04:04:18;;;;;;;;;19.50;16.00;;;;;6.51;74.83;101592.53;146606;598;46017;-79
2024/02/22 04:07:36;;;;;;;;;21.50;19.25;;;;;4.91;74.87;101316.06;146603;626;47012;-79
2024/02/22 04:10:37;;;;;;;;;20.50;17.00;;;;;6.68;75.00;101623.16;146602;593;47016;-77
2024/02/22 04:13:45;;;;;;;;;21.00;15.25;;;;;6.66;74.97;101619.53;146606;583;46020;-77
2024/02/22 04:16:44;;;;;;;;;17.75;15.00;;;;;6.25;75.06;101560.41;146600;628;47012;-77
2024/02/22 04:19:38;;;;;;;;;17.75;16.00;;;;;6.59;75.45;101620.72;146605;557;46023;-79
2024/02/22 04:22:57;;;;;;;;;15.25;13.00;;;;;6.51;75.14;101600.25;146604;651;46016;-78
2024/02/22 04:26:02;;;;;;;;;19.00;14.75;;;;;6.63;75.02;101614.13;146607;593;46010;-79
2024/02/22 04:29:17;;;;;;;;;18.00;16.00;;;;;6.61;75.02;101615.72;146602;579;46016;-78
2024/02/22 04:32:23;;;;;;;;;33.00;28.50;;;;;6.57;74.75;101611.94;146600;583;46011;-79
2024/02/22 04:35:28;;;;;;;;;;;;;;;;;;;;;
2024/02/22 04:38:27;;;;;;;;;21.25;18.00;;;;;6.52;74.91;101621.00;146604;651;47010;-72
2024/02/22 04:41:34;;;;;;;;;16.25;15.00;;;;;6.54;75.04;101629.78;146603;569;46017;-71
2024/02/22 04:44:46;;;;;;;;;21.75;17.00;;;;;6.54;75.55;101624.62;146606;564;46010;-72
2024/02/22 04:47:39;;;;;;;;;17.75;14.50;;;;;6.52;75.66;101621.00;146604;613;46016;-71
2024/02/22 04:50:46;;;;;;;;;22.50;20.25;;;;;6.48;75.07;101622.44;146602;576;49020;-70
2024/02/22 04:54:01;;;;;;;;;16.25;16.25;;;;;2.38;74.43;100915.09;146605;629;47017;-67
2024/02/22 04:57:23;;;;;;;;;20.50;16.00;;;;;1.93;75.31;100843.78;146609;643;46020;-67
2024/02/22 05:00:27;;;;;;;;;23.75;18.75;;;;;6.39;76.57;101637.13;146605;577;46023;-66
2024/02/22 05:03:23;;;;;;;;;23.50;18.00;;;;;6.34;77.17;101635.84;146599;663;47021;-67
2024/02/22 05:06:19;;;;;;;;;27.50;19.50;;;;;6.32;76.98;101632.22;146602;627;47016;-67
2024/02/22 05:09:25;;;;;;;;;27.75;24.00;;;;;6.32;77.05;101636.50;146609;612;46021;-68
2024/02/22 05:12:45;;;;;;;;;24.50;21.50;;;;;6.33;76.19;101719.06;146603;621;46016;-69
2024/02/22 05:15:37;;;;;;;;;24.50;21.75;;;;;6.34;77.32;101646.16;146608;625;46020;-69
2024/02/22 05:18:34;;;;;;;;;24.25;22.75;;;;;4.39;77.16;101302.28;146603;632;47014;-70
2024/02/22 05:21:38;;;;;;;;;25.75;21.25;;;;;6.38;77.45;101653.34;146607;591;46020;-70
2024/02/22 05:24:42;;;;;;;;;24.00;20.75;;;;;6.40;77.19;101653.50;146600;581;47012;-70
2024/02/22 05:27:40;;;;;;;;;20.75;18.25;;;;;6.39;77.22;101656.84;146606;609;46020;-71
2024/02/22 05:30:34;;;;;;;;;25.00;21.25;;;;;6.40;77.82;101659.53;146602;635;46012;-71
2024/02/22 05:33:26;;;;;;;;;20.75;19.50;;;;;6.41;77.62;101663.91;146602;581;46020;-70
2024/02/22 05:36:21;;;;;;;;;24.50;22.00;;;;;6.44;78.11;101666.75;146605;629;47016;-71
2024/02/22 05:39:19;;;;;;;;;25.25;20.00;;;;;6.47;78.25;101660.94;146607;612;46011;-80
2024/02/22 05:42:19;;;;;;;;;26.25;25.00;;;;;6.52;78.44;101676.81;146597;570;47917;-80
2024/02/22 05:45:41;;;;;;;;;27.00;22.50;;;;;6.59;78.32;101680.00;146608;606;47010;-81
2024/02/22 05:48:39;;;;;;;;;23.75;22.75;;;;;6.90;79.48;101679.91;146603;612;47016;-78
2024/02/22 05:51:41;;;;;;;;;24.75;20.50;;;;;7.65;80.50;101680.72;146607;593;46020;-77
2024/02/22 05:54:41;;;;;;;;;27.75;22.50;;;;;8.58;81.43;101688.69;146604;673;46012;-78
2024/02/22 05:57:40;;;;;;;;;27.00;23.25;;;;;9.63;80.76;101679.94;146605;649;47010;-77
2024/02/22 06:00:36;;;;;;;;;22.00;20.25;;;;;10.59;72.08;101685.63;146604;597;46917;-75
2024/02/22 06:03:53;;;;;;;;;22.50;19.00;;;;;11.32;68.47;101700.81;146599;583;47010;-71
2024/02/22 06:06:50;;;;;;;;;31.50;25.50;;;;;12.10;66.50;101690.91;146601;577;47012;-70
2024/02/22 06:09:45;;;;;;;;;26.75;23.00;;;;;12.76;64.12;101687.87;146605;577;47010;-72
2024/02/22 06:12:47;;;;;;;;;26.75;23.75;;;;;13.32;63.30;101687.63;146602;628;47016;-70
2024/02/22 06:15:47;;;;;;;;;21.00;18.50;;;;;13.83;61.44;101686.06;146606;580;47010;-70
2024/02/22 06:18:45;;;;;;;;;25.25;21.75;;;;;14.37;60.74;101695.78;146603;586;46012;-70
2024/02/22 06:21:48;;;;;;;;;23.25;19.00;;;;;14.88;58.79;101694.91;146610;621;46020;-70
2024/02/22 06:25:01;;;;;;;;;22.00;19.50;;;;;13.75;58.04;101394.53;146603;565;47035;-70
2024/02/22 06:27:59;;;;;;;;;19.50;16.75;;;;;15.95;55.69;101709.59;146601;619;48019;-70
2024/02/22 06:30:52;;;;;;;;;26.00;23.50;;;;;16.24;54.59;101713.50;146606;627;46016;-70
2024/02/22 06:33:54;;;;;;;;;27.75;25.75;;;;;16.55;53.23;101706.97;146600;575;47010;-69
2024/02/22 06:36:46;;;;;;;;;31.75;28.25;;;;;16.78;51.72;101697.47;146600;591;47012;-70
2024/02/22 06:39:42;;;;;;;;;37.00;31.00;;;;;16.84;50.68;101701.25;146605;622;47010;-70
2024/02/22 06:42:53;;;;;;;;;36.25;32.00;;;;;16.82;50.30;101694.16;146600;593;47012;-71
2024/02/22 06:45:53;;;;;;;;;47.75;38.00;;;;;16.68;49.69;101701.41;146605;683;46020;-70
2024/02/22 06:48:48;;;;;;;;;43.50;35.25;;;;;16.39;49.70;101708.03;146602;727;47012;-70
2024/02/22 06:51:58;;;;;;;;;49.25;38.00;;;;;16.05;50.84;101703.03;146608;584;46020;-72
2024/02/22 06:54:59;;;;;;;;;48.00;37.25;;;;;15.75;51.35;101694.69;146601;595;46014;-70
2024/02/22 06:58:06;;;;;;;;;47.75;39.00;;;;;15.46;52.81;101704.69;146606;624;46020;-70
2024/02/22 07:01:11;;;;;;;;;53.50;42.00;;;;;15.24;53.17;101710.59;146601;588;47013;-68
2024/02/22 07:04:11;;;;;;;;;50.25;41.00;;;;;15.00;53.62;101708.59;146600;581;47020;-69
2024/02/22 07:07:13;;;;;;;;;50.00;39.50;;;;;14.82;55.35;101706.78;146602;611;46030;-69
2024/02/22 07:10:15;;;;;;;;;53.75;41.25;;;;;14.75;55.50;101703.88;146606;572;46021;-71
2024/02/22 07:13:12;;;;;;;;;50.00;40.75;;;;;14.77;55.53;101703.97;146603;622;47016;-68
2024/02/22 07:16:13;;;;;;;;;51.50;41.00;;;;;14.82;56.23;101694.63;146605;678;47020;-69
2024/02/22 07:19:17;;;;;;;;;51.50;41.50;;;;;14.84;55.97;101692.09;146601;572;47012;-73
2024/02/22 07:22:17;;;;;;;;;55.50;44.75;;;;;14.95;55.57;101693.50;146605;614;47010;-67
2024/02/22 07:25:11;;;;;;;;;55.75;43.25;;;;;14.99;56.06;101693.75;146601;608;46016;-71
2024/02/22 07:28:10;;;;;;;;;53.75;42.75;;;;;15.02;55.61;101706.06;146602;607;46915;-71
2024/02/22 07:31:11;;;;;;;;;54.00;41.75;;;;;15.09;56.91;101697.69;146605;570;46013;-71
2024/02/22 07:34:12;;;;;;;;;51.50;42.25;;;;;13.10;55.98;101336.56;146602;613;46020;-71
2024/02/22 07:37:16;;;;;;;;;52.50;42.25;;;;;15.23;56.33;101698.34;146601;590;48016;-71
2024/02/22 07:40:23;;;;;;;;;50.25;40.50;;;;;15.24;56.97;101694.94;146607;746;46020;-70
2024/02/22 07:43:18;;;;;;;;;54.50;42.25;;;;;15.24;55.29;101700.16;146601;618;46016;-69
2024/02/22 07:46:22;;;;;;;;;47.00;38.50;;;;;15.18;54.68;101700.75;146606;632;46011;-70
2024/02/22 07:49:20;;;;;;;;;51.50;40.25;;;;;15.13;55.62;101699.62;146601;767;47012;-70
2024/02/22 07:52:39;;;;;;;;;52.25;38.75;;;;;15.13;56.93;101693.50;146605;660;47010;-70
2024/02/22 07:55:31;;;;;;;;;50.00;39.00;;;;;15.24;55.17;101692.31;146604;570;46016;-71
2024/02/22 07:58:29;;;;;;;;;52.25;38.75;;;;;15.33;54.63;101687.53;146607;646;46012;-71
2024/02/22 08:01:28;;;;;;;;;50.50;38.50;;;;;15.40;54.83;101689.59;146604;569;46013;-71
2024/02/22 08:04:32;;;;;;;;;45.25;38.00;;;;;15.49;54.98;101678.69;146599;565;47010;-71
2024/02/22 08:07:32;;;;;;;;;48.25;37.00;;;;;15.62;53.33;101682.75;146605;581;47013;-72
2024/02/22 08:10:45;;;;;;;;;44.75;37.75;;;;;12.37;56.84;101091.81;146609;579;46020;-72
2024/02/22 08:13:44;;;;;;;;;48.25;39.00;;;;;15.86;54.66;101672.56;146603;596;47012;-72
2024/02/22 08:16:46;;;;;;;;;39.00;32.50;;;;;16.05;53.34;101669.03;146606;666;47011;-72
2024/02/22 08:19:41;;;;;;;;;32.25;30.25;;;;;16.20;52.73;101668.78;146604;604;46012;-71
2024/02/22 08:22:35;;;;;;;;;27.75;21.00;;;;;16.26;52.24;101672.59;146607;606;46013;-71
2024/02/22 08:25:38;;;;;;;;;32.50;28.25;;;;;16.30;52.26;101669.25;146601;600;46024;-72
2024/02/22 08:28:35;;;;;;;;;35.75;31.50;;;;;16.48;53.26;101668.25;146607;597;46010;-73
2024/02/22 08:31:54;;;;;;;;;36.00;32.00;;;;;16.65;52.79;101666.34;146604;671;46033;-69
2024/02/22 08:34:58;;;;;;;;;42.50;35.00;;;;;16.72;51.90;101657.91;146598;642;47010;-70
2024/02/22 08:37:53;;;;;;;;;38.00;30.25;;;;;16.72;51.63;101660.53;146601;602;47017;-71
2024/02/22 08:40:46;;;;;;;;;34.00;28.25;;;;;16.74;51.71;101653.63;146605;579;47010;-70
2024/02/22 08:43:42;;;;;;;;;37.25;31.00;;;;;16.77;51.49;101659.91;146601;564;46012;-71
2024/02/22 08:46:34;;;;;;;;;36.25;31.25;;;;;16.84;51.40;101667.19;146608;582;46020;-71
2024/02/22 08:49:38;;;;;;;;;25.25;24.75;;;;;16.95;52.04;101659.78;146604;587;46031;-71
2024/02/22 08:52:36;;;;;;;;;27.25;23.50;;;;;17.05;51.23;101661.03;146605;609;46021;-71
2024/02/22 08:55:29;;;;;;;;;32.75;28.75;;;;;17.13;50.69;101663.94;146603;606;46915;-70
2024/02/22 08:58:25;;;;;;;;;30.25;26.75;;;;;17.17;51.74;101648.41;146607;584;46010;-72
2024/02/22 09:01:18;;;;;;;;;28.25;26.00;;;;;17.35;49.97;101652.56;146602;581;47012;-71
2024/02/22 09:04:29;;;;;;;;;32.50;26.75;;;;;17.45;50.96;101649.50;146600;582;47010;-71
2024/02/22 09:07:34;;;;;;;;;32.00;27.25;;;;;17.51;50.99;101650.59;146603;617;47016;-70
2024/02/22 09:10:39;;;;;;;;;26.75;23.25;;;;;17.57;49.73;101654.28;146606;602;46027;-70
2024/02/22 09:13:36;;;;;;;;;32.50;25.00;;;;;17.57;50.03;101654.28;146603;592;46017;-71
2024/02/22 09:16:39;;;;;;;;;25.50;22.25;;;;;17.54;51.68;101652.47;146601;595;47010;-71
2024/02/22 09:19:37;;;;;;;;;18.50;18.25;;;;;17.52;50.96;101648.88;146602;574;47012;-72
2024/02/22 09:22:31;;;;;;;;;27.00;22.50;;;;;17.50;50.65;101642.66;146605;574;47023;-69
2024/02/22 09:25:23;;;;;;;;;25.50;23.75;;;;;17.45;50.95;101644.25;146603;579;46016;-70
2024/02/22 09:28:34;;;;;;;;;27.75;24.00;;;;;17.42;53.67;101639.78;146606;632;46011;-70
2024/02/22 09:31:35;;;;;;;;;26.25;23.50;;;;;17.35;52.01;101647.31;146601;602;46012;-71
2024/02/22 09:34:28;;;;;;;;;26.00;21.75;;;;;17.29;52.01;101641.03;146602;607;46010;-68
2024/02/22 09:37:23;;;;;;;;;29.00;24.00;;;;;17.29;51.52;101658.50;146599;587;47014;-69
2024/02/22 09:40:23;;;;;;;;;28.75;21.75;;;;;17.37;52.20;101636.06;146603;593;47028;-71
2024/02/22 09:43:20;;;;;;;;;23.25;22.00;;;;;17.42;52.14;101628.41;146602;639;47014;-69
2024/02/22 09:46:29;;;;;;;;;31.25;28.75;;;;;17.45;53.05;101632.03;146605;569;46020;-70
2024/02/22 09:49:36;;;;;;;;;23.25;20.75;;;;;17.47;50.00;101635.56;146603;691;46016;-69
2024/02/22 09:52:37;;;;;;;;;21.75;18.25;;;;;17.43;52.59;101625.81;146605;569;46023;-69
2024/02/22 09:55:43;;;;;;;;;23.50;22.00;;;;;17.44;53.45;101618.84;146602;686;46016;-70
2024/02/22 09:58:35;;;;;;;;;27.75;24.00;;;;;17.47;52.07;101624.19;146607;583;46021;-71
2024/02/22 10:01:37;;;;;;;;;;;;;;;;;;;;;
2024/02/22 10:04:30;;;;;;;;;21.00;19.25;;;;;16.98;50.94;101526.28;146600;584;46020;-68
2024/02/22 10:07:54;;;;;;;;;25.25;24.00;;;;;14.48;53.60;101091.84;146603;647;47012;-70
2024/02/22 10:10:55;;;;;;;;;22.25;21.00;;;;;17.44;52.69;101601.38;146605;563;46020;-69
2024/02/22 10:13:53;;;;;;;;;22.50;20.25;;;;;17.35;51.27;101580.06;146600;608;46016;-70
2024/02/22 10:17:08;;;;;;;;;29.00;23.00;;;;;17.46;51.48;101597.09;146597;595;48010;-71
2024/02/22 10:20:20;;;;;;;;;21.50;20.00;;;;;17.43;52.03;101590.84;146602;621;47017;-69
2024/02/22 10:23:21;;;;;;;;;21.00;18.25;;;;;17.46;51.44;101583.97;146605;606;47012;-69
2024/02/22 10:26:15;;;;;;;;;20.25;19.00;;;;;17.49;51.20;101586.72;146602;630;46016;-69
2024/02/22 10:29:09;;;;;;;;;20.25;19.00;;;;;17.46;50.02;101581.34;146607;596;46011;-71
2024/02/22 10:32:18;;;;;;;;;19.00;18.25;;;;;17.47;51.80;101572.63;146602;565;46016;-69
2024/02/22 10:35:24;;;;;;;;;22.75;20.25;;;;;17.54;50.95;101577.28;146599;582;47020;-69
2024/02/22 10:38:38;;;;;;;;;23.75;20.25;;;;;17.61;52.48;101573.16;146604;614;46016;-71
2024/02/22 10:41:38;;;;;;;;;22.50;21.50;;;;;17.65;50.39;101561.94;146608;593;46020;-69
2024/02/22 10:44:41;;;;;;;;;11.25;7.00;;;;;15.00;52.15;101062.62;146603;616;46012;-69
2024/02/22 10:47:41;;;;;;;;;15.00;14.00;;;;;17.85;48.14;101546.94;146608;674;47010;-70
2024/02/22 10:50:37;;;;;;;;;20.00;18.00;;;;;17.80;48.25;101545.00;146602;565;47014;-71
2024/02/22 10:53:44;;;;;;;;;11.25;11.25;;;;;17.69;50.35;101544.56;146605;687;46020;-70
2024/02/22 10:56:44;;;;;;;;;18.25;16.00;;;;;17.67;49.70;101533.16;146603;564;46017;-70
2024/02/22 10:59:44;;;;;;;;;16.00;13.75;;;;;17.66;49.06;101526.09;146607;570;46020;-71
2024/02/22 11:02:52;;;;;;;;;15.75;14.50;;;;;17.57;50.38;101518.81;146602;573;47014;-71
2024/02/22 11:05:59;;;;;;;;;20.25;16.50;;;;;17.67;50.41;101520.03;146600;582;46021;-69
2024/02/22 11:09:04;;;;;;;;;16.25;14.00;;;;;17.80;51.34;101519.66;146601;569;47012;-70
2024/02/22 11:12:05;;;;;;;;;5.25;4.00;;;;;17.97;50.54;101514.97;146608;616;46021;-72
2024/02/22 11:15:25;;;;;;;;;20.00;18.00;;;;;18.04;50.87;101505.56;146607;579;47012;-72
2024/02/22 11:18:30;;;;;;;;;19.75;15.75;;;;;18.17;51.95;101499.91;146604;591;48010;-71
2024/02/22 11:21:22;;;;;;;;;14.25;12.50;;;;;18.18;47.53;101496.41;146602;606;47013;-73
2024/02/22 11:24:17;;;;;;;;;18.75;18.00;;;;;17.97;48.94;101493.97;146605;613;46010;-70
2024/02/22 11:27:13;;;;;;;;;18.50;18.25;;;;;17.84;49.40;101484.81;146599;592;47012;-70
2024/02/22 11:30:34;;;;;;;;;16.00;14.00;;;;;14.91;52.72;100981.34;146606;570;47010;-70
2024/02/22 11:33:43;;;;;;;;;16.50;15.75;;;;;17.80;50.78;101476.78;146601;612;46022;-70
2024/02/22 11:36:41;;;;;;;;;19.75;18.00;;;;;17.88;50.42;101476.22;146601;570;46010;-70
2024/02/22 11:39:39;;;;;;;;;18.50;15.25;;;;;17.91;49.73;101467.53;146602;569;46016;-71
2024/02/22 11:42:32;;;;;;;;;15.75;13.50;;;;;17.98;49.75;101472.16;146608;638;46010;-72
2024/02/22 11:45:37;;;;;;;;;15.25;13.50;;;;;18.08;48.97;101461.13;146604;587;46016;-71
2024/02/22 11:48:43;;;;;;;;;16.00;14.00;;;;;18.16;47.46;101458.72;146607;614;46020;-71
2024/02/22 11:51:40;;;;;;;;;17.00;13.25;;;;;18.09;48.55;101431.41;146603;597;46035;-71
2024/02/22 11:54:45;;;;;;;;;13.75;11.75;;;;;14.93;48.71;100856.97;146607;641;46010;-71
2024/02/22 11:57:42;;;;;;;;;17.00;13.00;;;;;18.38;47.72;101440.19;146603;569;46043;-73
2024/02/22 12:00:45;;;;;;;;;16.00;14.25;;;;;18.44;47.79;101437.75;146605;716;46010;-71
2024/02/22 12:03:47;;;;;;;;;16.25;14.75;;;;;18.44;47.68;101429.87;146604;667;46915;-74
2024/02/22 12:06:43;;;;;;;;;12.75;10.75;;;;;18.43;46.33;101425.47;146600;674;47020;-71
2024/02/22 12:09:39;;;;;;;;;14.25;10.50;;;;;18.42;47.06;101418.44;146603;680;47012;-69
2024/02/22 12:12:39;;;;;;;;;14.50;13.50;;;;;18.46;47.05;101414.16;146607;596;47011;-71
2024/02/22 12:15:39;;;;;;;;;15.00;13.00;;;;;18.45;47.32;101408.03;146598;573;47012;-67
2024/02/22 12:18:38;;;;;;;;;17.00;15.00;;;;;18.41;48.39;101413.13;146606;592;46021;-70
2024/02/22 12:21:36;;;;;;;;;13.50;13.00;;;;;18.40;48.06;101400.84;146606;589;46016;-69
2024/02/22 12:24:40;;;;;;;;;9.50;8.75;;;;;18.35;47.40;101411.22;146606;684;47010;-70
2024/02/22 12:27:45;;;;;;;;;13.00;12.00;;;;;18.31;48.62;101404.06;146612;620;46915;-70
2024/02/22 12:30:44;;;;;;;;;10.00;9.75;;;;;18.29;47.09;101392.66;146606;621;46010;-69
2024/02/22 12:33:48;;;;;;;;;11.00;11.00;;;;;18.19;45.77;101393.19;146608;634;46939;-69
2024/02/22 12:36:50;;;;;;;;;16.50;14.25;;;;;18.07;47.42;101391.12;146598;565;47012;-69
2024/02/22 12:39:47;;;;;;;;;16.00;15.00;;;;;18.16;47.23;101385.22;146603;655;46016;-70
2024/02/22 12:42:57;;;;;;;;;7.00;7.00;;;;;15.85;48.19;100960.34;146609;570;46021;-69
2024/02/22 12:46:13;;;;;;;;;13.75;11.00;;;;;18.43;47.19;101379.94;146607;678;46016;-70
2024/02/22 12:49:06;;;;;;;;;13.00;11.00;;;;;18.39;43.71;101372.81;146606;684;47010;-70
2024/02/22 12:52:02;;;;;;;;;11.00;10.50;;;;;18.19;44.17;101388.88;146601;712;47012;-67
2024/02/22 12:55:09;;;;;;;;;10.50;10.50;;;;;18.08;47.98;101379.75;146607;564;46021;-71
2024/02/22 12:58:04;;;;;;;;;10.50;7.75;;;;;18.20;46.98;101376.63;146604;672;47016;-69
2024/02/22 13:01:03;;;;;;;;;12.00;9.50;;;;;18.32;45.64;101366.50;146612;591;47020;-69
2024/02/22 13:03:57;;;;;;;;;11.75;10.50;;;;;18.39;45.42;101360.56;146608;604;47013;-71
2024/02/22 13:06:54;;;;;;;;;18.00;15.00;;;;;18.52;46.39;101355.69;146602;658;46010;-70
2024/02/22 13:09:51;;;;;;;;;12.50;10.25;;;;;18.55;44.59;101361.03;146599;702;47012;-71
2024/02/22 13:12:46;;;;;;;;;9.50;9.25;;;;;18.26;44.47;101368.94;146603;556;47021;-70
2024/02/22 13:15:47;;;;;;;;;14.50;12.00;;;;;18.04;44.62;101349.03;146613;631;47012;-70
2024/02/22 13:18:48;;;;;;;;;13.00;11.50;;;;;17.86;45.36;101357.22;146609;612;46011;-67
2024/02/22 13:21:55;;;;;;;;;12.75;11.50;;;;;17.74;46.66;101346.28;146605;643;46016;-72
2024/02/22 13:24:56;;;;;;;;;14.25;12.75;;;;;17.77;47.63;101346.41;146608;601;46010;-72
2024/02/22 13:27:52;;;;;;;;;11.50;10.00;;;;;17.82;47.36;101342.22;146606;578;46017;-71
2024/02/22 13:31:09;;;;;;;;;15.00;13.50;;;;;17.71;45.76;101344.44;146608;563;46020;-69
2024/02/22 13:34:13;;;;;;;;;13.25;12.00;;;;;17.62;47.48;101343.28;146604;632;46013;-73
2024/02/22 13:37:13;;;;;;;;;14.50;9.25;;;;;17.58;47.66;101329.16;146602;715;47012;-73
2024/02/22 13:40:21;;;;;;;;;14.00;11.50;;;;;17.62;48.64;101325.78;146610;564;46017;-71
2024/02/22 13:43:21;;;;;;;;;14.00;13.00;;;;;17.60;47.11;101330.12;146608;633;46020;-72
2024/02/22 13:46:18;;;;;;;;;9.75;9.75;;;;;17.68;49.44;101317.25;146605;696;47012;-79
2024/02/22 13:49:20;;;;;;;;;12.75;11.00;;;;;17.89;48.73;101322.31;146615;642;46010;-73
2024/02/22 13:52:23;;;;;;;;;12.50;10.50;;;;;18.11;46.05;101323.84;146598;570;48012;-74
2024/02/22 13:55:23;;;;;;;;;11.00;11.00;;;;;17.98;46.94;101317.34;146607;564;47020;-71
2024/02/22 13:58:22;;;;;;;;;11.00;10.25;;;;;17.76;47.60;101318.37;146603;647;46016;-71